createdAt,value
2023-05-21T00:01:16.192Z,13.98
2023-05-21T00:03:46.295Z,11.63
2023-05-21T00:06:16.383Z,12.73
2023-05-21T00:08:43.348Z,10.88
2023-05-21T00:11:10.232Z,10.77
2023-05-21T00:13:38.673Z,12.52
2023-05-21T00:16:05.941Z,13.68
2023-05-21T00:18:34.232Z,11.75
2023-05-21T00:21:01.811Z,13.85
2023-05-21T00:23:30.257Z,11.95
2023-05-21T00:25:57.082Z,10.18
2023-05-21T00:28:23.866Z,10.32
2023-05-21T00:30:50.708Z,12.40
2023-05-21T00:33:17.474Z,12.23
2023-05-21T00:35:44.416Z,10.77
2023-05-21T00:38:11.228Z,12.70
2023-05-21T00:40:41.133Z,13.45
2023-05-21T00:43:10.728Z,13.07
2023-05-21T00:45:38.150Z,10.02
2023-05-21T00:48:06.370Z,13.05
2023-05-21T00:50:33.309Z,14.15
2023-05-21T00:53:00.305Z,13.02
2023-05-21T00:55:27.455Z,12.90
2023-05-21T00:57:54.827Z,11.52
2023-05-21T01:00:24.300Z,12.20
2023-05-21T01:02:51.301Z,13.13
2023-05-21T01:05:18.673Z,11.23
2023-05-21T01:07:46.645Z,14.75
2023-05-21T01:10:13.593Z,11.35
2023-05-21T01:12:43.672Z,12.27
2023-05-21T01:15:11.413Z,12.60
2023-05-21T01:17:39.826Z,11.43
2023-05-21T01:20:10.828Z,13.25
2023-05-21T01:22:49.471Z,11.52
2023-05-21T01:25:16.302Z,12.32
2023-05-21T01:27:43.143Z,11.32
2023-05-21T01:30:10.741Z,11.40
2023-05-21T01:32:48.837Z,15.18
2023-05-21T01:35:26.282Z,10.70
2023-05-21T01:38:04.994Z,11.90
2023-05-21T01:40:39.878Z,12.52
2023-05-21T01:43:08.306Z,10.82
2023-05-21T01:45:38.722Z,11.23
2023-05-21T01:48:07.891Z,12.10
2023-05-21T01:50:37.377Z,11.70
2023-05-21T01:53:05.976Z,14.77
2023-05-21T01:55:33.404Z,10.65
2023-05-21T01:58:02.530Z,10.25
2023-05-21T02:00:32.254Z,11.85
2023-05-21T02:02:59.757Z,9.98
2023-05-21T02:05:26.706Z,13.38
2023-05-21T02:07:54.884Z,10.43
2023-05-21T02:10:22.787Z,12.18
2023-05-21T02:12:49.871Z,10.52
2023-05-21T02:15:19.193Z,10.30
2023-05-21T02:17:46.715Z,11.68
2023-05-21T02:20:14.474Z,13.70
2023-05-21T02:22:46.569Z,11.50
2023-05-21T02:25:18.352Z,10.88
2023-05-21T02:27:46.584Z,13.13
2023-05-21T02:30:15.770Z,9.52
2023-05-21T02:32:44.929Z,10.88
2023-05-21T02:35:13.297Z,13.77
2023-05-21T02:37:40.780Z,13.02
2023-05-21T02:40:09.919Z,13.05
2023-05-21T02:42:39.624Z,10.85
2023-05-21T02:45:11.544Z,11.15
2023-05-21T02:47:40.858Z,9.93
2023-05-21T02:50:09.252Z,11.48
2023-05-21T02:52:43.106Z,14.55
2023-05-21T02:55:10.167Z,11.60
2023-05-21T02:57:36.951Z,12.07
2023-05-21T03:00:06.064Z,13.02
2023-05-21T03:02:33.682Z,11.73
2023-05-21T03:05:00.746Z,11.60
2023-05-21T03:07:27.588Z,13.43
2023-05-21T03:09:54.702Z,11.35
2023-05-21T03:12:21.769Z,12.18
2023-05-21T03:14:51.294Z,15.77
2023-05-21T03:17:18.944Z,10.45
2023-05-21T03:19:45.849Z,11.27
2023-05-21T03:22:12.759Z,10.65
2023-05-21T03:24:39.977Z,12.50
2023-05-21T03:27:07.401Z,12.40
2023-05-21T03:29:34.951Z,11.27
2023-05-21T03:32:03.084Z,15.85
2023-05-21T03:34:31.348Z,10.63
2023-05-21T03:36:58.923Z,13.52
2023-05-21T03:39:26.867Z,12.52
2023-05-21T03:41:55.416Z,11.40
2023-05-21T03:44:51.362Z,11.40
2023-05-21T03:47:38.183Z,12.93
2023-05-21T03:50:09.283Z,13.60
2023-05-21T03:52:36.259Z,11.60
2023-05-21T03:55:03.237Z,12.43
2023-05-21T03:57:30.365Z,14.38
2023-05-21T03:59:59.039Z,12.82
2023-05-21T04:02:27.516Z,12.77
2023-05-21T04:04:56.041Z,11.48
2023-05-21T04:07:23.871Z,11.52
2023-05-21T04:09:50.902Z,11.27
2023-05-21T04:12:20.153Z,11.23
2023-05-21T04:14:47.787Z,12.77
2023-05-21T04:17:14.622Z,12.60
2023-05-21T04:19:42.022Z,11.35
2023-05-21T04:22:12.052Z,11.32
2023-05-21T04:24:39.275Z,11.73
2023-05-21T04:27:14.127Z,14.13
2023-05-21T04:29:42.698Z,11.00
2023-05-21T04:32:09.665Z,12.48
2023-05-21T04:34:36.463Z,11.55
2023-05-21T04:37:04.675Z,12.57
2023-05-21T04:39:32.195Z,12.23
2023-05-21T04:41:58.989Z,13.10
2023-05-21T04:44:26.363Z,11.60
2023-05-21T04:46:54.908Z,11.25
2023-05-21T04:49:21.877Z,11.18
2023-05-21T04:51:49.464Z,11.02
2023-05-21T04:54:16.629Z,13.23
2023-05-21T04:56:44.330Z,11.30
2023-05-21T04:59:11.509Z,10.90
2023-05-21T05:01:38.819Z,10.48
2023-05-21T05:04:06.335Z,12.00
2023-05-21T05:06:33.290Z,13.13
2023-05-21T05:09:00.143Z,11.23
2023-05-21T05:11:27.100Z,11.30
2023-05-21T05:13:54.269Z,15.65
2023-05-21T05:16:25.708Z,11.48
2023-05-21T05:18:53.658Z,12.25
2023-05-21T05:21:22.695Z,11.68
2023-05-21T05:23:50.146Z,12.75
2023-05-21T05:26:17.484Z,10.80
2023-05-21T05:28:45.921Z,10.82
2023-05-21T05:31:13.051Z,13.57
2023-05-21T05:33:41.410Z,11.18
2023-05-21T05:36:08.348Z,12.18
2023-05-21T05:38:36.084Z,10.13
2023-05-21T05:41:03.060Z,10.52
2023-05-21T05:43:30.008Z,10.18
2023-05-21T05:45:58.197Z,15.65
2023-05-21T05:48:25.013Z,11.65
2023-05-21T05:50:54.694Z,12.68
2023-05-21T05:53:22.819Z,10.30
2023-05-21T05:55:49.720Z,11.80
2023-05-21T05:58:16.872Z,10.55
2023-05-21T06:01:02.460Z,10.88
2023-05-21T06:03:29.786Z,10.80
2023-05-21T06:05:57.610Z,10.85
2023-05-21T06:08:26.711Z,13.00
2023-05-21T06:10:53.548Z,10.27
2023-05-21T06:13:20.526Z,10.32
2023-05-21T06:15:47.432Z,12.55
2023-05-21T06:18:14.781Z,12.18
2023-05-21T06:20:42.321Z,9.98
2023-05-21T06:23:09.696Z,11.13
2023-05-21T06:25:37.955Z,10.98
2023-05-21T06:28:05.364Z,11.13
2023-05-21T06:30:33.294Z,11.68
2023-05-21T06:33:00.515Z,10.82
2023-05-21T06:35:27.460Z,12.38
2023-05-21T06:37:54.487Z,12.60
2023-05-21T06:40:22.188Z,11.55
2023-05-21T06:42:51.957Z,11.40
2023-05-21T06:45:37.319Z,12.75
2023-05-21T06:48:17.259Z,10.45
2023-05-21T06:50:44.293Z,11.70
2023-05-21T06:53:13.851Z,9.45
2023-05-21T06:55:40.655Z,11.82
2023-05-21T06:58:15.561Z,10.18
2023-05-21T07:00:42.384Z,11.82
2023-05-21T07:03:09.960Z,11.20
2023-05-21T07:05:37.238Z,9.85
2023-05-21T07:08:05.411Z,10.63
2023-05-21T07:10:32.225Z,9.35
2023-05-21T07:12:59.104Z,10.88
2023-05-21T07:15:26.750Z,9.60
2023-05-21T07:17:53.684Z,10.10
2023-05-21T07:20:20.680Z,10.40
2023-05-21T07:22:50.089Z,8.82
2023-05-21T07:25:17.619Z,9.45
2023-05-21T07:27:44.657Z,10.45
2023-05-21T07:30:11.877Z,10.20
2023-05-21T07:32:38.743Z,9.30
2023-05-21T07:35:06.689Z,10.93
2023-05-21T07:37:33.642Z,12.10
2023-05-21T07:40:00.647Z,10.05
2023-05-21T07:42:28.002Z,9.77
2023-05-21T07:44:56.758Z,11.02
2023-05-21T07:47:25.279Z,8.65
2023-05-21T07:49:52.141Z,8.48
2023-05-21T07:52:19.003Z,10.90
2023-05-21T07:54:45.894Z,8.32
2023-05-21T07:57:12.945Z,10.32
2023-05-21T07:59:48.669Z,7.95
2023-05-21T08:02:15.829Z,10.80
2023-05-21T08:04:43.181Z,9.10
2023-05-21T08:07:10.773Z,9.23
2023-05-21T08:09:37.738Z,8.95
2023-05-21T08:12:05.014Z,8.93
2023-05-21T08:14:32.386Z,8.57
2023-05-21T08:17:00.000Z,10.05
2023-05-21T08:19:26.914Z,8.00
2023-05-21T08:21:53.784Z,8.77
2023-05-21T08:24:22.097Z,9.75
2023-05-21T08:26:50.606Z,10.60
2023-05-21T08:29:18.165Z,8.55
2023-05-21T08:31:45.221Z,8.60
2023-05-21T08:34:12.123Z,10.10
2023-05-21T08:36:47.060Z,7.75
2023-05-21T08:39:43.102Z,8.48
2023-05-21T08:42:35.682Z,9.07
2023-05-21T08:45:06.944Z,8.57
2023-05-21T08:47:36.961Z,9.15
2023-05-21T08:50:11.034Z,8.85
2023-05-21T08:52:38.003Z,10.85
2023-05-21T08:55:06.022Z,8.32
2023-05-21T08:57:34.099Z,9.10
2023-05-21T09:00:02.118Z,8.27
2023-05-21T09:02:34.327Z,8.52
2023-05-21T09:05:03.788Z,8.07
2023-05-21T09:07:34.308Z,7.93
2023-05-21T09:10:13.565Z,9.57
2023-05-21T09:12:41.360Z,8.25
2023-05-21T09:15:08.672Z,10.93
2023-05-21T09:17:37.472Z,7.38
2023-05-21T09:20:28.711Z,8.63
2023-05-21T09:23:04.851Z,7.55
2023-05-21T09:25:33.049Z,6.70
2023-05-21T09:28:13.269Z,7.07
2023-05-21T09:30:54.236Z,6.93
2023-05-21T09:33:26.142Z,9.18
2023-05-21T09:35:53.293Z,7.05
2023-05-21T09:38:23.740Z,6.82
2023-05-21T09:40:51.057Z,6.70
2023-05-21T09:43:18.427Z,6.47
2023-05-21T09:45:52.718Z,8.60
2023-05-21T09:48:40.951Z,6.93
2023-05-21T09:51:18.784Z,7.30
2023-05-21T09:53:59.631Z,6.15
2023-05-21T09:56:32.053Z,7.00
2023-05-21T09:59:04.110Z,7.40
2023-05-21T10:01:33.950Z,7.20
2023-05-21T10:04:06.503Z,7.28
2023-05-21T10:06:42.036Z,6.38
2023-05-21T10:09:11.200Z,8.23
2023-05-21T10:11:39.816Z,7.10
2023-05-21T10:14:09.454Z,6.93
2023-05-21T10:16:37.741Z,6.95
2023-05-21T10:19:10.821Z,6.85
2023-05-21T10:21:39.849Z,6.68
2023-05-21T10:24:11.064Z,7.22
2023-05-21T10:26:39.482Z,6.35
2023-05-21T10:29:07.881Z,8.90
2023-05-21T10:31:35.995Z,6.75
2023-05-21T10:34:05.995Z,5.70
2023-05-21T10:36:34.265Z,6.60
2023-05-21T10:39:03.162Z,6.68
2023-05-21T10:41:42.247Z,6.22
2023-05-21T10:44:21.761Z,6.07
2023-05-21T10:47:23.605Z,6.07
2023-05-21T10:50:09.242Z,6.55
2023-05-21T10:52:36.148Z,6.70
2023-05-21T10:55:23.367Z,5.95
2023-05-21T10:58:11.164Z,6.43
2023-05-21T11:00:38.574Z,6.07
2023-05-21T11:03:06.772Z,6.10
2023-05-21T11:05:41.496Z,5.97
2023-05-21T11:08:26.314Z,6.05
2023-05-21T11:10:54.903Z,6.43
2023-05-21T11:13:22.067Z,6.22
2023-05-21T11:15:57.882Z,6.45
2023-05-21T11:18:24.668Z,6.13
2023-05-21T11:20:52.025Z,6.05
2023-05-21T11:23:20.976Z,5.80
2023-05-21T11:26:02.980Z,6.32
2023-05-21T11:28:34.330Z,5.90
2023-05-21T11:31:22.710Z,6.70
2023-05-21T11:34:14.691Z,5.97
2023-05-21T11:36:44.476Z,7.45
2023-05-21T11:39:17.867Z,7.30
2023-05-21T11:41:56.645Z,6.30
2023-05-21T11:44:52.890Z,7.70
2023-05-21T11:47:20.130Z,6.35
2023-05-21T11:49:47.092Z,6.30
2023-05-21T11:52:15.079Z,6.82
2023-05-21T11:54:51.143Z,6.65
2023-05-21T11:57:19.377Z,5.45
2023-05-21T11:59:47.324Z,7.75
2023-05-21T12:02:19.148Z,7.97
2023-05-21T12:04:51.036Z,7.03
2023-05-21T12:07:19.318Z,6.28
2023-05-21T12:09:52.097Z,5.90
2023-05-21T12:12:21.574Z,6.60
2023-05-21T12:14:50.105Z,6.25
2023-05-21T12:17:18.510Z,6.03
2023-05-21T12:19:46.562Z,5.50
2023-05-21T12:22:16.474Z,6.00
2023-05-21T12:24:44.679Z,6.45
2023-05-21T12:27:13.606Z,6.03
2023-05-21T12:29:42.947Z,5.30
2023-05-21T12:32:14.865Z,6.00
2023-05-21T12:34:47.386Z,6.07
2023-05-21T12:37:31.308Z,5.55
2023-05-21T12:40:07.778Z,5.93
2023-05-21T12:42:37.426Z,5.35
2023-05-21T12:45:08.264Z,5.95
2023-05-21T12:47:35.391Z,5.45
2023-05-21T12:50:04.374Z,5.55
2023-05-21T12:52:31.184Z,5.70
2023-05-21T12:54:58.602Z,5.80
2023-05-21T12:57:28.231Z,5.68
2023-05-21T12:59:57.581Z,6.10
2023-05-21T13:02:38.415Z,5.78
2023-05-21T13:05:07.983Z,6.00
2023-05-21T13:07:37.585Z,6.00
2023-05-21T13:10:06.043Z,5.20
2023-05-21T13:12:34.068Z,5.78
2023-05-21T13:15:02.302Z,5.75
2023-05-21T13:17:29.357Z,6.00
2023-05-21T13:20:12.731Z,6.72
2023-05-21T13:22:47.596Z,6.20
2023-05-21T13:25:21.531Z,8.77
2023-05-21T13:27:49.874Z,5.38
2023-05-21T13:30:18.039Z,5.60
2023-05-21T13:32:45.270Z,6.03
2023-05-21T13:35:12.795Z,5.45
2023-05-21T13:37:41.141Z,6.47
2023-05-21T13:40:11.117Z,7.78
2023-05-21T13:42:38.601Z,5.53
2023-05-21T13:45:07.390Z,5.95
2023-05-21T13:47:36.231Z,4.90
2023-05-21T13:50:05.782Z,4.68
2023-05-21T13:52:32.669Z,5.95
2023-05-21T13:54:59.720Z,4.85
2023-05-21T13:57:27.176Z,6.13
2023-05-21T13:59:54.025Z,4.65
2023-05-21T14:02:20.923Z,4.15
2023-05-21T14:04:48.045Z,4.57
2023-05-21T14:07:14.966Z,5.55
2023-05-21T14:09:42.359Z,5.53
2023-05-21T14:12:09.502Z,4.47
2023-05-21T14:14:36.348Z,5.28
2023-05-21T14:17:03.192Z,7.47
2023-05-21T14:19:30.297Z,4.97
2023-05-21T14:21:57.192Z,4.70
2023-05-21T14:24:24.107Z,4.70
2023-05-21T14:26:51.009Z,6.93
2023-05-21T14:29:17.841Z,4.82
2023-05-21T14:31:46.272Z,5.10
2023-05-21T14:34:13.121Z,7.75
2023-05-21T14:36:39.927Z,5.00
2023-05-21T14:39:06.893Z,4.68
2023-05-21T14:41:33.700Z,4.07
2023-05-21T14:44:00.624Z,4.38
2023-05-21T14:46:27.639Z,4.63
2023-05-21T14:48:59.238Z,4.57
2023-05-21T14:51:26.146Z,6.82
2023-05-21T14:53:52.982Z,4.07
2023-05-21T14:56:22.116Z,4.70
2023-05-21T14:58:49.316Z,4.72
2023-05-21T15:01:16.337Z,4.45
2023-05-21T15:03:43.386Z,4.97
2023-05-21T15:06:10.354Z,4.60
2023-05-21T15:08:37.136Z,4.63
2023-05-21T15:11:04.066Z,4.90
2023-05-21T15:13:30.922Z,4.30
2023-05-21T15:15:57.806Z,5.38
2023-05-21T15:18:24.948Z,4.60
2023-05-21T15:20:52.931Z,6.25
2023-05-21T15:23:19.768Z,4.55
2023-05-21T15:25:46.577Z,4.72
2023-05-21T15:28:13.415Z,4.53
2023-05-21T15:30:40.522Z,4.68
2023-05-21T15:33:07.999Z,5.82
2023-05-21T15:35:36.160Z,4.57
2023-05-21T15:38:03.561Z,4.55
2023-05-21T15:40:31.647Z,4.18
2023-05-21T15:42:58.438Z,3.75
2023-05-21T15:45:25.461Z,4.05
2023-05-21T15:47:52.324Z,4.43
2023-05-21T15:50:19.212Z,5.75
2023-05-21T15:52:46.005Z,4.50
2023-05-21T15:55:14.173Z,4.53
2023-05-21T15:57:41.242Z,4.35
2023-05-21T16:00:09.505Z,4.15
2023-05-21T16:02:36.748Z,4.10
2023-05-21T16:05:03.989Z,4.80
2023-05-21T16:07:31.175Z,5.00
2023-05-21T16:09:58.099Z,4.50
2023-05-21T16:12:25.066Z,4.30
2023-05-21T16:14:51.878Z,4.53
2023-05-21T16:17:19.903Z,4.95
2023-05-21T16:19:47.419Z,5.63
2023-05-21T16:22:14.737Z,4.82
2023-05-21T16:24:41.572Z,4.40
2023-05-21T16:27:08.409Z,4.85
2023-05-21T16:29:35.329Z,4.63
2023-05-21T16:32:02.234Z,5.55
2023-05-21T16:34:29.093Z,4.43
2023-05-21T16:36:55.984Z,4.82
2023-05-21T16:39:22.775Z,4.82
2023-05-21T16:41:49.781Z,4.75
2023-05-21T16:44:16.623Z,5.10
2023-05-21T16:46:43.451Z,4.70
2023-05-21T16:49:10.277Z,4.53
2023-05-21T16:51:37.094Z,5.57
2023-05-21T16:54:04.788Z,5.45
2023-05-21T16:56:31.982Z,5.82
2023-05-21T16:58:58.991Z,5.20
2023-05-21T17:01:26.159Z,4.72
2023-05-21T17:03:54.271Z,4.97
2023-05-21T17:06:21.408Z,5.05
2023-05-21T17:08:48.216Z,5.53
2023-05-21T17:11:15.114Z,5.40
2023-05-21T17:13:42.103Z,7.20
2023-05-21T17:16:09.144Z,6.82
2023-05-21T17:18:36.015Z,5.50
2023-05-21T17:21:02.820Z,5.22
2023-05-21T17:23:29.603Z,5.18
2023-05-21T17:25:56.445Z,5.00
2023-05-21T17:28:23.273Z,5.50
2023-05-21T17:30:50.097Z,8.10
2023-05-21T17:33:17.026Z,5.85
2023-05-21T17:35:44.002Z,5.32
2023-05-21T17:38:10.866Z,4.55
2023-05-21T17:40:37.748Z,5.13
2023-05-21T17:43:05.050Z,5.95
2023-05-21T17:45:32.293Z,7.28
2023-05-21T17:48:00.380Z,5.45
2023-05-21T17:50:27.483Z,5.05
2023-05-21T17:52:54.319Z,5.03
2023-05-21T17:55:21.276Z,4.53
2023-05-21T17:57:48.242Z,4.70
2023-05-21T18:00:15.306Z,5.05
2023-05-21T18:02:42.316Z,4.97
2023-05-21T18:05:09.286Z,4.55
2023-05-21T18:07:37.394Z,4.55
2023-05-21T18:10:04.678Z,4.88
2023-05-21T18:12:31.584Z,4.72
2023-05-21T18:14:58.393Z,4.38
2023-05-21T18:17:25.251Z,4.65
2023-05-21T18:19:52.064Z,5.47
2023-05-21T18:22:18.915Z,4.53
2023-05-21T18:24:46.266Z,4.80
2023-05-21T18:27:13.582Z,4.80
2023-05-21T18:29:40.493Z,4.60
2023-05-21T18:32:07.890Z,4.63
2023-05-21T18:34:34.942Z,4.50
2023-05-21T18:37:01.803Z,5.22
2023-05-21T18:39:28.655Z,4.82
2023-05-21T18:42:08.907Z,3.58
2023-05-21T18:44:39.542Z,3.83
2023-05-21T18:47:07.746Z,3.80
2023-05-21T18:49:36.114Z,4.20
2023-05-21T18:52:04.146Z,4.55
2023-05-21T18:54:31.172Z,5.28
2023-05-21T18:57:01.004Z,4.90
2023-05-21T18:59:29.162Z,4.93
2023-05-21T19:01:56.151Z,5.82
2023-05-21T19:04:23.071Z,7.47
2023-05-21T19:06:49.994Z,4.97
2023-05-21T19:09:17.036Z,8.70
2023-05-21T19:11:44.129Z,6.82
2023-05-21T19:14:11.076Z,5.35
2023-05-21T19:16:38.041Z,9.75
2023-05-21T19:19:05.976Z,6.38
2023-05-21T19:21:33.021Z,6.70
2023-05-21T19:23:59.885Z,4.72
2023-05-21T19:26:26.867Z,4.55
2023-05-21T19:28:54.562Z,4.93
2023-05-21T19:31:22.571Z,4.93
2023-05-21T19:33:49.568Z,5.32
2023-05-21T19:36:16.948Z,4.88
2023-05-21T19:38:50.899Z,5.00
2023-05-21T19:41:18.617Z,4.40
2023-05-21T19:43:45.976Z,4.85
2023-05-21T19:46:14.008Z,4.88
2023-05-21T19:48:42.169Z,4.60
2023-05-21T19:51:08.961Z,9.27
2023-05-21T19:53:36.153Z,4.90
2023-05-21T19:56:03.029Z,4.10
2023-05-21T19:58:31.444Z,4.22
2023-05-21T20:00:59.202Z,4.80
2023-05-21T20:03:26.942Z,5.63
2023-05-21T20:05:54.640Z,5.20
2023-05-21T20:08:21.913Z,5.03
2023-05-21T20:10:51.371Z,4.78
2023-05-21T20:13:19.453Z,6.60
2023-05-21T20:15:47.949Z,8.30
2023-05-21T20:18:15.484Z,6.63
2023-05-21T20:20:43.053Z,4.80
2023-05-21T20:23:09.851Z,5.38
2023-05-21T20:25:36.697Z,6.97
2023-05-21T20:28:05.063Z,7.53
2023-05-21T20:30:33.984Z,5.50
2023-05-21T20:33:02.345Z,5.93
2023-05-21T20:35:29.910Z,5.60
2023-05-21T20:37:56.784Z,5.70
2023-05-21T20:40:23.644Z,5.43
2023-05-21T20:42:53.524Z,6.53
2023-05-21T20:45:21.006Z,5.18
2023-05-21T20:47:48.133Z,5.10
2023-05-21T20:50:17.519Z,5.45
2023-05-21T20:52:47.051Z,4.72
2023-05-21T20:55:14.782Z,4.72
2023-05-21T20:57:42.090Z,6.30
2023-05-21T21:00:11.797Z,4.85
2023-05-21T21:02:39.224Z,5.65
2023-05-21T21:05:10.105Z,5.20
2023-05-21T21:07:37.707Z,5.10
2023-05-21T21:10:05.130Z,4.70
2023-05-21T21:12:32.096Z,4.90
2023-05-21T21:14:58.919Z,5.63
2023-05-21T21:17:25.849Z,4.60
2023-05-21T21:19:52.727Z,3.75
2023-05-21T21:22:19.640Z,4.53
2023-05-21T21:24:47.205Z,4.70
2023-05-21T21:27:14.083Z,5.50
2023-05-21T21:29:40.879Z,6.93
2023-05-21T21:32:08.011Z,6.47
2023-05-21T21:34:34.814Z,5.00
2023-05-21T21:37:01.618Z,5.40
2023-05-21T21:39:28.576Z,5.72
2023-05-21T21:41:55.736Z,7.82
2023-05-21T21:44:22.604Z,5.45
2023-05-21T21:46:49.486Z,5.32
2023-05-21T21:49:19.445Z,5.30
2023-05-21T21:51:46.259Z,6.10
2023-05-21T21:54:13.079Z,5.60
2023-05-21T21:56:39.939Z,6.45
2023-05-21T21:59:06.844Z,5.53
2023-05-21T22:01:34.091Z,4.93
2023-05-21T22:04:01.106Z,4.97
2023-05-21T22:06:28.614Z,5.68
2023-05-21T22:08:55.751Z,5.45
2023-05-21T22:11:22.830Z,5.60
2023-05-21T22:13:49.662Z,6.32
2023-05-21T22:16:16.553Z,8.80
2023-05-21T22:18:43.651Z,5.10
2023-05-21T22:21:14.277Z,5.32
2023-05-21T22:23:41.487Z,6.78
2023-05-21T22:26:09.636Z,8.00
2023-05-21T22:28:36.457Z,6.35
2023-05-21T22:31:03.487Z,6.60
2023-05-21T22:33:30.498Z,6.82
2023-05-21T22:35:58.063Z,6.63
2023-05-21T22:38:25.641Z,6.30
2023-05-21T22:40:52.455Z,6.35
2023-05-21T22:43:19.453Z,6.07
2023-05-21T22:45:46.404Z,6.47
2023-05-21T22:48:14.244Z,6.43
2023-05-21T22:50:41.291Z,8.60
2023-05-21T22:53:08.301Z,6.63
2023-05-21T22:55:35.118Z,6.55
2023-05-21T22:58:02.283Z,5.97
2023-05-21T23:00:29.191Z,6.20
2023-05-21T23:02:56.361Z,8.75
2023-05-21T23:05:23.290Z,7.00
2023-05-21T23:07:50.148Z,6.45
2023-05-21T23:10:17.273Z,6.20
2023-05-21T23:12:44.118Z,6.20
2023-05-21T23:15:11.558Z,6.15
2023-05-21T23:17:38.762Z,6.40
2023-05-21T23:20:09.310Z,6.57
2023-05-21T23:22:36.834Z,7.57
2023-05-21T23:25:03.993Z,7.63
2023-05-21T23:27:30.863Z,6.47
2023-05-21T23:29:57.645Z,6.15
2023-05-21T23:32:24.586Z,7.85
2023-05-21T23:34:51.446Z,7.28
2023-05-21T23:37:18.691Z,6.80
2023-05-21T23:39:49.265Z,6.53
2023-05-21T23:42:16.884Z,7.22
2023-05-21T23:44:43.959Z,5.63
2023-05-21T23:47:10.768Z,8.70
2023-05-21T23:49:37.718Z,7.68
2023-05-21T23:52:05.474Z,5.78
2023-05-21T23:54:32.335Z,5.90
2023-05-21T23:56:59.151Z,5.15
2023-05-21T23:59:26.075Z,5.20
